Terminal Aerodrome Forecast
Issued by NWS Bismarck, ND

Home | Current Version | Previous Version | Text Only | Print | Product List | Glossary On
Versions: 1 2 3 4 5 6 7 8 9 10 11 12
000
FTUS43 KBIS 231136
TAFISN
TAF
KISN 231136Z 2312/2412 19003KT P6SM SKC
     FM240100 06007KT P6SM FEW130 FEW250
     FM241100 09006KT P6SM FEW110 FEW200=

USA.gov is the U.S. government's official web portal to all federal, state and local government web resources and services.